createdAt,value
2019-02-10T00:00:28.548Z,306.01
2019-02-10T00:01:28.745Z,306.51
2019-02-10T00:02:29.053Z,306.61
2019-02-10T00:03:29.171Z,306.85
2019-02-10T00:04:29.377Z,306.35
2019-02-10T00:05:29.609Z,306.39
2019-02-10T00:06:29.805Z,306.06
2019-02-10T00:07:30.032Z,305.79
2019-02-10T00:08:30.233Z,306.67
2019-02-10T00:09:30.463Z,306.19
2019-02-10T00:10:30.720Z,306.36
2019-02-10T00:11:30.965Z,306.39
2019-02-10T00:12:31.112Z,306.44
2019-02-10T00:13:31.377Z,306.53
2019-02-10T00:14:31.561Z,306.53
2019-02-10T00:15:31.784Z,305.99
2019-02-10T00:16:31.982Z,306.25
2019-02-10T00:17:32.214Z,306.01
2019-02-10T00:18:32.404Z,306.15
2019-02-10T00:19:32.735Z,306.33
2019-02-10T00:20:32.867Z,306.53
2019-02-10T00:21:33.062Z,306.43
2019-02-10T00:22:33.258Z,306.39
2019-02-10T00:23:33.474Z,306.42
2019-02-10T00:24:33.697Z,305.67
2019-02-10T00:25:33.929Z,306.70
2019-02-10T00:26:34.134Z,306.31
2019-02-10T00:27:34.427Z,306.25
2019-02-10T00:28:34.591Z,306.31
2019-02-10T00:29:34.809Z,306.37
2019-02-10T00:30:35.039Z,306.54
2019-02-10T00:31:35.228Z,306.70
2019-02-10T00:32:35.455Z,306.36
2019-02-10T00:33:35.678Z,304.21
2019-02-10T00:34:35.897Z,305.94
2019-02-10T00:35:36.203Z,306.33
2019-02-10T00:36:36.313Z,306.07
2019-02-10T00:37:36.536Z,304.07
2019-02-10T00:38:36.781Z,306.41
2019-02-10T00:39:36.964Z,306.45
2019-02-10T00:40:37.200Z,305.72
2019-02-10T00:41:37.398Z,305.70
2019-02-10T00:42:37.643Z,306.17
2019-02-10T00:43:37.880Z,306.40
2019-02-10T00:44:38.012Z,308.58
2019-02-10T00:45:38.264Z,306.42
2019-02-10T00:46:38.480Z,305.88
2019-02-10T00:47:38.699Z,307.61
2019-02-10T00:48:38.931Z,306.52
2019-02-10T00:49:39.142Z,306.49
2019-02-10T00:50:39.376Z,306.16
2019-02-10T00:51:39.575Z,307.06
2019-02-10T00:52:39.875Z,306.33
2019-02-10T00:53:40.013Z,306.27
2019-02-10T00:54:40.201Z,305.30
2019-02-10T00:55:40.420Z,306.99
2019-02-10T00:56:40.633Z,307.29
2019-02-10T00:57:40.852Z,306.10
2019-02-10T00:58:41.090Z,305.24
2019-02-10T00:59:41.290Z,305.90
2019-02-10T01:00:41.865Z,306.17
2019-02-10T01:01:41.696Z,306.75
2019-02-10T01:02:41.911Z,307.28
2019-02-10T01:03:42.146Z,305.83
2019-02-10T01:04:42.354Z,306.46
2019-02-10T01:05:42.577Z,306.42
2019-02-10T01:06:42.759Z,306.30
2019-02-10T01:07:42.990Z,308.87
2019-02-10T01:08:43.320Z,307.95
2019-02-10T01:09:43.415Z,306.21
2019-02-10T01:10:43.642Z,306.42
2019-02-10T01:11:43.824Z,307.34
2019-02-10T01:12:44.055Z,304.69
2019-02-10T01:13:44.303Z,306.18
2019-02-10T01:14:44.506Z,307.94
2019-02-10T01:15:44.731Z,306.55
2019-02-10T01:16:44.953Z,307.33
2019-02-10T01:17:45.111Z,307.27
2019-02-10T01:18:45.364Z,305.96
2019-02-10T01:19:45.573Z,306.95
2019-02-10T01:20:45.790Z,307.20
2019-02-10T01:21:45.989Z,306.40
2019-02-10T01:22:46.208Z,306.30
2019-02-10T01:23:46.432Z,306.18
2019-02-10T01:24:46.925Z,306.38
2019-02-10T01:25:46.913Z,306.57
2019-02-10T01:26:47.057Z,306.08
2019-02-10T01:27:47.277Z,306.20
2019-02-10T01:28:47.481Z,306.24
2019-02-10T01:29:47.717Z,311.82
2019-02-10T01:30:47.942Z,311.56
2019-02-10T01:31:48.137Z,311.53
2019-02-10T01:32:48.357Z,311.80
2019-02-10T01:33:48.675Z,311.52
2019-02-10T01:34:48.783Z,311.41
2019-02-10T01:35:49.010Z,311.19
2019-02-10T01:36:49.721Z,311.60
2019-02-10T01:37:49.420Z,311.87
2019-02-10T01:38:49.635Z,311.74
2019-02-10T01:39:49.858Z,311.28
2019-02-10T01:40:50.072Z,311.76
2019-02-10T01:41:50.415Z,311.70
2019-02-10T01:42:50.504Z,311.63
2019-02-10T01:43:50.720Z,311.34
2019-02-10T01:44:50.951Z,312.07
2019-02-10T01:45:51.146Z,311.27
2019-02-10T01:46:51.381Z,311.59
2019-02-10T01:47:51.591Z,311.50
2019-02-10T01:48:51.837Z,311.30
2019-02-10T01:49:52.039Z,311.61
2019-02-10T01:50:52.218Z,311.13
2019-02-10T01:51:52.456Z,311.78
2019-02-10T01:52:52.656Z,311.79
2019-02-10T01:53:52.909Z,311.25
2019-02-10T01:54:53.084Z,311.80
2019-02-10T01:55:53.300Z,311.83
2019-02-10T01:56:53.542Z,311.81
2019-02-10T01:57:53.781Z,311.49
2019-02-10T01:58:53.949Z,311.63
2019-02-10T01:59:54.158Z,311.26
2019-02-10T02:00:54.356Z,311.59
2019-02-10T02:01:54.608Z,311.70
2019-02-10T02:02:54.799Z,311.96
2019-02-10T02:03:55.043Z,311.89
2019-02-10T02:04:55.254Z,311.38
2019-02-10T02:05:55.459Z,311.87
2019-02-10T02:06:57.821Z,311.06
2019-02-10T02:07:55.904Z,311.69
2019-02-10T02:08:56.135Z,311.35
2019-02-10T02:09:56.347Z,311.53
2019-02-10T02:10:56.547Z,311.63
2019-02-10T02:11:56.817Z,311.52
2019-02-10T02:12:56.980Z,311.90
2019-02-10T02:13:57.215Z,312.50
2019-02-10T02:14:57.540Z,311.59
2019-02-10T02:15:57.608Z,311.89
2019-02-10T02:16:57.853Z,311.88
2019-02-10T02:17:58.046Z,312.32
2019-02-10T02:18:58.279Z,311.71
2019-02-10T02:19:58.496Z,311.67
2019-02-10T02:20:58.700Z,311.80
2019-02-10T02:21:58.911Z,311.70
2019-02-10T02:22:59.227Z,311.29
2019-02-10T02:23:59.364Z,311.57
2019-02-10T02:24:59.579Z,311.79
2019-02-10T02:25:59.777Z,311.39
2019-02-10T02:26:59.993Z,311.63
2019-02-10T02:28:00.206Z,311.69
2019-02-10T02:29:00.455Z,311.64
2019-02-10T02:30:00.980Z,311.65
2019-02-10T02:31:00.896Z,311.69
2019-02-10T02:32:01.086Z,311.81
2019-02-10T02:33:01.269Z,312.06
2019-02-10T02:34:01.512Z,312.27
2019-02-10T02:35:01.732Z,311.98
2019-02-10T02:36:01.929Z,311.91
2019-02-10T02:37:07.585Z,311.96
2019-02-10T02:38:03.348Z,311.97
2019-02-10T02:39:02.825Z,312.03
2019-02-10T02:40:02.806Z,312.11
2019-02-10T02:41:02.991Z,311.88
2019-02-10T02:42:03.232Z,311.77
2019-02-10T02:43:03.432Z,311.66
2019-02-10T02:44:03.620Z,311.62
2019-02-10T02:45:03.868Z,312.05
2019-02-10T02:46:04.090Z,311.92
2019-02-10T02:47:04.338Z,312.45
2019-02-10T02:48:04.621Z,312.03
2019-02-10T02:49:04.733Z,312.09
2019-02-10T02:50:04.987Z,311.26
2019-02-10T02:51:05.250Z,311.41
2019-02-10T02:52:05.425Z,311.91
2019-02-10T02:53:05.624Z,311.92
2019-02-10T02:54:05.840Z,311.11
2019-02-10T02:55:06.060Z,312.41
2019-02-10T02:56:06.376Z,311.72
2019-02-10T02:57:06.518Z,312.13
2019-02-10T02:58:06.712Z,311.97
2019-02-10T02:59:06.913Z,311.57
2019-02-10T03:00:07.171Z,311.58
2019-02-10T03:01:07.371Z,311.76
2019-02-10T03:02:07.620Z,311.82
2019-02-10T03:03:07.797Z,311.85
2019-02-10T03:04:08.068Z,311.63
2019-02-10T03:05:08.232Z,311.84
2019-02-10T03:06:08.432Z,311.66
2019-02-10T03:07:17.508Z,311.14
2019-02-10T03:08:09.857Z,311.41
2019-02-10T03:09:09.073Z,311.93
2019-02-10T03:10:09.320Z,311.89
2019-02-10T03:11:09.488Z,312.42
2019-02-10T03:12:09.814Z,311.79
2019-02-10T03:13:09.910Z,311.59
2019-02-10T03:14:10.139Z,311.82
2019-02-10T03:15:10.369Z,311.60
2019-02-10T03:16:10.546Z,312.15
2019-02-10T03:17:10.782Z,311.72
2019-02-10T03:18:11.001Z,311.65
2019-02-10T03:19:11.218Z,311.54
2019-02-10T03:20:11.493Z,312.18
2019-02-10T03:21:11.680Z,311.76
2019-02-10T03:22:11.873Z,311.50
2019-02-10T03:23:12.082Z,311.98
2019-02-10T03:24:12.298Z,311.95
2019-02-10T03:25:12.566Z,311.55
2019-02-10T03:26:12.727Z,311.92
2019-02-10T03:27:12.957Z,311.86
2019-02-10T03:28:13.143Z,311.65
2019-02-10T03:29:13.437Z,311.52
2019-02-10T03:30:13.632Z,311.98
2019-02-10T03:31:13.796Z,311.96
2019-02-10T03:32:14.015Z,311.97
2019-02-10T03:33:14.363Z,311.77
2019-02-10T03:34:14.428Z,312.22
2019-02-10T03:35:14.677Z,311.90
2019-02-10T03:36:14.872Z,311.72
2019-02-10T03:37:15.193Z,312.10
2019-02-10T03:38:15.288Z,311.53
2019-02-10T03:39:15.536Z,311.80
2019-02-10T03:40:15.754Z,312.01
2019-02-10T03:41:15.935Z,311.97
2019-02-10T03:42:16.160Z,311.80
2019-02-10T03:43:16.353Z,311.62
2019-02-10T03:44:16.583Z,312.15
2019-02-10T03:45:16.893Z,311.59
2019-02-10T03:46:16.995Z,312.19
2019-02-10T03:47:17.218Z,312.01
2019-02-10T03:48:17.414Z,311.99
2019-02-10T03:49:17.646Z,311.95
2019-02-10T03:50:17.940Z,311.74
2019-02-10T03:51:18.092Z,312.01
2019-02-10T03:52:18.303Z,311.68
2019-02-10T03:53:18.572Z,311.97
2019-02-10T03:54:18.709Z,312.04
2019-02-10T03:55:19.012Z,312.12
2019-02-10T03:56:19.174Z,312.39
2019-02-10T03:57:19.391Z,312.24
2019-02-10T03:58:19.621Z,311.69
2019-02-10T03:59:19.837Z,311.69
2019-02-10T04:00:20.089Z,311.75
2019-02-10T04:01:20.284Z,312.25
2019-02-10T04:02:20.583Z,311.76
2019-02-10T04:03:20.732Z,312.19
2019-02-10T04:04:20.907Z,312.13
2019-02-10T04:05:21.181Z,311.87
2019-02-10T04:06:21.394Z,311.88
2019-02-10T04:07:21.591Z,311.99
2019-02-10T04:08:21.821Z,312.49
2019-02-10T04:09:22.020Z,312.48
2019-02-10T04:10:22.347Z,312.27
2019-02-10T04:11:22.460Z,311.82
2019-02-10T04:12:22.659Z,312.41
2019-02-10T04:13:22.902Z,311.80
2019-02-10T04:14:23.093Z,312.25
2019-02-10T04:15:23.319Z,311.84
2019-02-10T04:16:23.530Z,311.81
2019-02-10T04:17:23.744Z,312.33
2019-02-10T04:18:24.274Z,311.74
2019-02-10T04:19:24.160Z,311.70
2019-02-10T04:20:24.382Z,311.89
2019-02-10T04:21:24.596Z,312.16
2019-02-10T04:22:24.821Z,311.84
2019-02-10T04:23:25.051Z,311.44
2019-02-10T04:24:25.251Z,311.81
2019-02-10T04:25:25.481Z,312.05
2019-02-10T04:26:25.724Z,312.23
2019-02-10T04:27:25.873Z,311.56
2019-02-10T04:28:26.117Z,312.18
2019-02-10T04:29:26.313Z,312.20
2019-02-10T04:30:26.627Z,311.84
2019-02-10T04:31:26.746Z,312.05
2019-02-10T04:32:26.937Z,312.12
2019-02-10T04:33:27.187Z,311.87
2019-02-10T04:34:27.423Z,312.16
2019-02-10T04:35:27.663Z,312.00
2019-02-10T04:36:27.825Z,312.46
2019-02-10T04:37:28.008Z,311.58
2019-02-10T04:38:28.263Z,311.85
2019-02-10T04:39:28.461Z,311.66
2019-02-10T04:40:28.693Z,312.15
2019-02-10T04:41:28.936Z,311.86
2019-02-10T04:42:29.124Z,312.21
2019-02-10T04:43:29.415Z,312.09
2019-02-10T04:44:29.541Z,311.50
2019-02-10T04:45:29.766Z,311.88
2019-02-10T04:46:29.974Z,311.79
2019-02-10T04:47:30.165Z,311.71
2019-02-10T04:48:30.410Z,312.00
2019-02-10T04:49:30.622Z,312.05
2019-02-10T04:50:30.829Z,311.58
2019-02-10T04:51:31.207Z,312.08
2019-02-10T04:52:31.251Z,312.62
2019-02-10T04:53:31.504Z,312.19
2019-02-10T04:54:31.700Z,312.14
2019-02-10T04:55:31.921Z,311.90
2019-02-10T04:56:32.165Z,311.57
2019-02-10T04:57:32.364Z,312.11
2019-02-10T04:58:32.577Z,312.13
2019-02-10T04:59:32.840Z,312.58
2019-02-10T05:00:33.004Z,311.81
2019-02-10T05:01:33.261Z,312.26
2019-02-10T05:02:33.469Z,311.73
2019-02-10T05:03:33.678Z,312.12
2019-02-10T05:04:33.892Z,311.62
2019-02-10T05:05:34.125Z,312.36
2019-02-10T05:06:34.362Z,312.13
2019-02-10T05:07:34.617Z,311.72
2019-02-10T05:08:34.767Z,311.95
2019-02-10T05:09:34.949Z,311.88
2019-02-10T05:10:35.181Z,311.55
2019-02-10T05:11:35.435Z,312.54
2019-02-10T05:12:35.619Z,311.84
2019-02-10T05:13:35.844Z,311.58
2019-02-10T05:14:36.048Z,311.54
2019-02-10T05:15:36.277Z,311.44
2019-02-10T05:16:36.557Z,312.16
2019-02-10T05:17:36.697Z,311.54
2019-02-10T05:18:36.911Z,311.98
2019-02-10T05:19:37.108Z,312.00
2019-02-10T05:20:37.325Z,312.00
2019-02-10T05:21:37.577Z,311.80
2019-02-10T05:22:39.275Z,311.85
2019-02-10T05:23:38.010Z,311.88
2019-02-10T05:24:38.330Z,311.62
2019-02-10T05:25:38.415Z,311.82
2019-02-10T05:26:38.658Z,311.96
2019-02-10T05:27:38.845Z,311.65
2019-02-10T05:28:39.079Z,311.54
2019-02-10T05:29:39.270Z,312.10
2019-02-10T05:30:39.474Z,311.75
2019-02-10T05:31:39.750Z,311.60
2019-02-10T05:32:40.017Z,306.68
2019-02-10T05:33:40.160Z,307.02
2019-02-10T05:34:40.353Z,306.17
2019-02-10T05:35:40.561Z,306.63
2019-02-10T05:36:40.815Z,306.19
2019-02-10T05:37:41.005Z,306.63
2019-02-10T05:38:41.236Z,306.64
2019-02-10T05:39:41.435Z,306.51
2019-02-10T05:40:41.669Z,306.75
2019-02-10T05:41:41.857Z,306.25
2019-02-10T05:42:42.069Z,306.59
2019-02-10T05:43:42.300Z,305.99
2019-02-10T05:44:42.499Z,306.91
2019-02-10T05:45:42.715Z,306.80
2019-02-10T05:46:42.957Z,306.58
2019-02-10T05:47:43.125Z,306.13
2019-02-10T05:48:43.418Z,306.53
2019-02-10T05:49:43.563Z,306.80
2019-02-10T05:50:43.797Z,306.67
2019-02-10T05:51:44.082Z,306.14
2019-02-10T05:52:44.206Z,306.75
2019-02-10T05:53:44.458Z,306.85
2019-02-10T05:54:44.661Z,306.79
2019-02-10T05:55:44.868Z,306.80
2019-02-10T05:56:45.136Z,306.05
2019-02-10T05:57:45.434Z,306.70
2019-02-10T05:58:45.750Z,306.61
2019-02-10T05:59:45.745Z,306.51
2019-02-10T06:00:45.966Z,306.99
2019-02-10T06:01:46.210Z,306.59
2019-02-10T06:02:46.397Z,306.43
2019-02-10T06:03:46.653Z,306.40
2019-02-10T06:04:46.841Z,306.55
2019-02-10T06:05:47.208Z,306.48
2019-02-10T06:06:47.347Z,306.09
2019-02-10T06:07:47.488Z,306.44
2019-02-10T06:08:47.723Z,306.54
2019-02-10T06:09:48.027Z,306.66
2019-02-10T06:10:48.174Z,306.47
2019-02-10T06:11:48.433Z,306.63
2019-02-10T06:12:48.607Z,306.80
2019-02-10T06:13:48.848Z,306.79
2019-02-10T06:14:49.040Z,307.07
2019-02-10T06:15:49.240Z,306.77
2019-02-10T06:16:49.504Z,306.46
2019-02-10T06:17:49.673Z,306.54
2019-02-10T06:18:49.870Z,306.99
2019-02-10T06:19:50.102Z,306.18
2019-02-10T06:20:50.319Z,306.77
2019-02-10T06:21:50.631Z,306.67
2019-02-10T06:22:50.728Z,306.85
2019-02-10T06:23:50.955Z,306.72
2019-02-10T06:24:51.164Z,307.05
2019-02-10T06:25:51.381Z,306.88
2019-02-10T06:26:51.655Z,307.00
2019-02-10T06:27:51.824Z,306.84
2019-02-10T06:28:52.046Z,306.67
2019-02-10T06:29:52.332Z,306.77
2019-02-10T06:30:52.499Z,306.80
2019-02-10T06:31:52.744Z,306.45
2019-02-10T06:32:52.906Z,306.49
2019-02-10T06:33:53.111Z,306.82
2019-02-10T06:34:53.364Z,306.18
2019-02-10T06:35:53.536Z,305.57
2019-02-10T06:36:53.847Z,306.31
2019-02-10T06:37:54.020Z,306.49
2019-02-10T06:38:54.352Z,307.24
2019-02-10T06:39:54.428Z,307.92
2019-02-10T06:40:54.625Z,306.70
2019-02-10T06:41:54.883Z,307.91
2019-02-10T06:42:55.084Z,306.73
2019-02-10T06:43:55.283Z,306.50
2019-02-10T06:44:55.515Z,306.88
2019-02-10T06:45:55.711Z,306.05
2019-02-10T06:46:56.004Z,306.42
2019-02-10T06:47:57.662Z,306.77
2019-02-10T06:48:56.360Z,306.70
2019-02-10T06:49:56.600Z,306.91
2019-02-10T06:50:56.776Z,306.86
2019-02-10T06:51:57.023Z,307.06
2019-02-10T06:52:57.246Z,307.13
2019-02-10T06:53:57.450Z,306.89
2019-02-10T06:54:57.738Z,308.43
2019-02-10T06:55:57.862Z,306.86
2019-02-10T06:56:58.077Z,306.35
2019-02-10T06:57:58.318Z,306.31
2019-02-10T06:58:58.510Z,305.55
2019-02-10T06:59:58.753Z,306.58
2019-02-10T07:00:58.946Z,306.33
2019-02-10T07:01:59.163Z,306.73
2019-02-10T07:02:59.399Z,306.79
2019-02-10T07:03:59.568Z,308.92
2019-02-10T07:04:59.801Z,304.92
2019-02-10T07:06:00.013Z,308.73
2019-02-10T07:07:00.240Z,306.76
2019-02-10T07:08:00.455Z,307.47
2019-02-10T07:09:00.684Z,306.70
2019-02-10T07:10:00.931Z,306.83
2019-02-10T07:11:01.174Z,306.79
2019-02-10T07:12:01.428Z,306.67
2019-02-10T07:13:01.567Z,306.56
2019-02-10T07:14:01.774Z,307.38
2019-02-10T07:15:02.009Z,305.96
2019-02-10T07:16:02.204Z,306.53
2019-02-10T07:17:02.421Z,306.96
2019-02-10T07:18:02.664Z,306.76
2019-02-10T07:19:02.843Z,306.77
2019-02-10T07:20:03.196Z,306.47
2019-02-10T07:21:03.289Z,306.54
2019-02-10T07:22:03.492Z,306.64
2019-02-10T07:23:03.735Z,307.27
2019-02-10T07:24:03.909Z,306.99
2019-02-10T07:25:04.158Z,306.27
2019-02-10T07:26:04.362Z,306.58
2019-02-10T07:27:04.580Z,306.66
2019-02-10T07:28:05.047Z,306.81
2019-02-10T07:29:04.996Z,306.74
2019-02-10T07:30:05.242Z,306.53
2019-02-10T07:31:05.443Z,307.16
2019-02-10T07:32:05.660Z,306.42
2019-02-10T07:33:06.189Z,306.80
2019-02-10T07:34:06.079Z,307.02
2019-02-10T07:35:06.332Z,306.97
2019-02-10T07:36:06.615Z,306.55
2019-02-10T07:37:06.959Z,306.79
2019-02-10T07:38:07.022Z,306.58
2019-02-10T07:39:07.172Z,306.85
2019-02-10T07:40:07.391Z,306.64
2019-02-10T07:41:07.577Z,306.87
2019-02-10T07:42:07.810Z,306.54
2019-02-10T07:43:08.072Z,306.58
2019-02-10T07:44:08.277Z,306.91
2019-02-10T07:45:08.474Z,306.87
2019-02-10T07:46:08.661Z,306.85
2019-02-10T07:47:08.892Z,306.50
2019-02-10T07:48:09.139Z,306.96
2019-02-10T07:49:09.321Z,307.23
2019-02-10T07:50:09.570Z,306.68
2019-02-10T07:51:09.747Z,306.48
2019-02-10T07:52:09.960Z,306.76
2019-02-10T07:53:10.314Z,306.74
2019-02-10T07:54:10.399Z,306.76
2019-02-10T07:55:10.644Z,306.75
2019-02-10T07:56:10.812Z,306.33
2019-02-10T07:57:11.043Z,306.94
2019-02-10T07:58:11.273Z,306.74
2019-02-10T07:59:11.473Z,306.81
2019-02-10T08:00:11.710Z,306.81
2019-02-10T08:01:12.018Z,306.95
2019-02-10T08:02:12.120Z,306.43
2019-02-10T08:03:12.351Z,306.84
2019-02-10T08:04:12.569Z,306.63
2019-02-10T08:05:12.792Z,306.35
2019-02-10T08:06:12.967Z,306.82
2019-02-10T08:07:13.183Z,306.94
2019-02-10T08:08:13.437Z,306.74
2019-02-10T08:09:13.675Z,306.33
2019-02-10T08:10:13.839Z,306.62
2019-02-10T08:11:14.064Z,307.12
2019-02-10T08:12:14.269Z,306.55
2019-02-10T08:13:14.513Z,306.80
2019-02-10T08:14:14.812Z,306.88
2019-02-10T08:15:14.927Z,306.99
2019-02-10T08:16:15.162Z,306.90
2019-02-10T08:17:15.452Z,306.90
2019-02-10T08:18:15.562Z,307.20
2019-02-10T08:19:15.781Z,307.01
2019-02-10T08:20:15.997Z,306.90
2019-02-10T08:21:16.221Z,306.71
2019-02-10T08:22:16.432Z,306.68
2019-02-10T08:23:16.669Z,306.57
2019-02-10T08:24:21.173Z,307.35
2019-02-10T08:25:17.099Z,306.97
2019-02-10T08:26:17.345Z,306.85
2019-02-10T08:27:17.504Z,306.54
2019-02-10T08:28:17.766Z,306.61
2019-02-10T08:29:17.936Z,306.30
2019-02-10T08:30:18.150Z,307.53
2019-02-10T08:31:18.383Z,306.77
2019-02-10T08:32:18.583Z,306.29
2019-02-10T08:33:18.833Z,306.75
2019-02-10T08:34:19.103Z,305.35
2019-02-10T08:35:19.226Z,306.37
2019-02-10T08:36:19.458Z,307.36
2019-02-10T08:37:19.656Z,306.91
2019-02-10T08:38:19.884Z,306.54
2019-02-10T08:39:20.077Z,306.38
2019-02-10T08:40:20.298Z,306.48
2019-02-10T08:41:20.546Z,306.65
2019-02-10T08:42:20.887Z,306.72
2019-02-10T08:43:20.975Z,306.65
2019-02-10T08:44:21.186Z,306.55
2019-02-10T08:45:21.384Z,306.71
2019-02-10T08:46:21.618Z,306.58
2019-02-10T08:47:21.831Z,306.88
2019-02-10T08:48:22.052Z,307.26
2019-02-10T08:49:22.247Z,305.38
2019-02-10T08:50:22.535Z,306.75
2019-02-10T08:51:22.678Z,306.59
2019-02-10T08:52:22.896Z,306.77
2019-02-10T08:53:23.117Z,307.26
2019-02-10T08:54:23.334Z,306.85
2019-02-10T08:55:23.530Z,306.56
2019-02-10T08:56:23.748Z,306.77
2019-02-10T08:57:24.157Z,308.61
2019-02-10T08:58:24.221Z,307.11
2019-02-10T08:59:24.366Z,306.73
2019-02-10T09:00:24.598Z,306.69
2019-02-10T09:01:24.820Z,308.08
2019-02-10T09:02:25.038Z,306.56
2019-02-10T09:03:25.282Z,304.94
2019-02-10T09:04:25.500Z,306.27
2019-02-10T09:05:25.696Z,308.12
2019-02-10T09:06:26.407Z,307.26
2019-02-10T09:07:26.336Z,305.98
2019-02-10T09:08:26.337Z,306.27
2019-02-10T09:09:26.556Z,306.85
2019-02-10T09:10:26.770Z,307.29
2019-02-10T09:11:27.002Z,306.72
2019-02-10T09:12:27.205Z,306.79
2019-02-10T09:13:27.427Z,306.59
2019-02-10T09:14:27.888Z,305.76
2019-02-10T09:15:28.038Z,306.42
2019-02-10T09:16:28.081Z,306.22
2019-02-10T09:17:28.285Z,306.97
2019-02-10T09:18:28.503Z,305.30
2019-02-10T09:19:28.735Z,306.51
2019-02-10T09:20:28.944Z,306.43
2019-02-10T09:21:29.173Z,306.49
2019-02-10T09:22:29.383Z,306.61
2019-02-10T09:23:29.658Z,306.88
2019-02-10T09:24:29.805Z,306.55
2019-02-10T09:25:30.001Z,305.82
2019-02-10T09:26:30.248Z,306.27
2019-02-10T09:27:30.436Z,306.14
2019-02-10T09:28:30.637Z,306.56
2019-02-10T09:29:30.881Z,306.24
2019-02-10T09:30:31.093Z,306.82
2019-02-10T09:31:33.107Z,307.36
2019-02-10T09:32:31.485Z,306.92
2019-02-10T09:33:31.756Z,306.49
2019-02-10T09:34:31.943Z,306.06
2019-02-10T09:35:32.149Z,305.94
2019-02-10T09:36:32.372Z,306.36
2019-02-10T09:37:32.573Z,306.87
2019-02-10T09:38:32.782Z,306.54
2019-02-10T09:39:33.048Z,306.65
2019-02-10T09:40:33.295Z,306.18
2019-02-10T09:41:33.460Z,306.77
2019-02-10T09:42:34.409Z,306.64
2019-02-10T09:43:33.873Z,306.40
2019-02-10T09:44:34.092Z,306.60
2019-02-10T09:45:34.311Z,306.65
2019-02-10T09:46:34.553Z,308.20
2019-02-10T09:47:34.753Z,305.74
2019-02-10T09:48:35.085Z,307.46
2019-02-10T09:49:35.184Z,306.22
2019-02-10T09:50:35.402Z,306.26
2019-02-10T09:51:35.627Z,306.13
2019-02-10T09:52:35.828Z,305.92
2019-02-10T09:53:36.417Z,306.42
2019-02-10T09:54:36.273Z,306.27
2019-02-10T09:55:36.463Z,306.54
2019-02-10T09:56:37.410Z,306.28
2019-02-10T09:57:36.896Z,306.38
2019-02-10T09:58:37.116Z,306.30
2019-02-10T09:59:37.332Z,306.40
2019-02-10T10:00:37.557Z,306.77
2019-02-10T10:01:37.776Z,306.45
2019-02-10T10:02:37.980Z,306.04
2019-02-10T10:03:38.189Z,306.33
2019-02-10T10:04:38.441Z,306.98
2019-02-10T10:05:38.597Z,306.58
2019-02-10T10:06:38.842Z,306.65
2019-02-10T10:07:39.037Z,306.74
2019-02-10T10:08:39.245Z,306.73
2019-02-10T10:09:39.487Z,306.03
2019-02-10T10:10:39.676Z,306.81
2019-02-10T10:11:39.901Z,307.00
2019-02-10T10:12:40.172Z,305.49
2019-02-10T10:13:40.304Z,307.17
2019-02-10T10:14:40.547Z,306.54
2019-02-10T10:15:40.753Z,304.87
2019-02-10T10:16:40.963Z,307.42
2019-02-10T10:17:41.181Z,307.13
2019-02-10T10:18:41.397Z,307.21
2019-02-10T10:19:41.629Z,306.68
2019-02-10T10:20:41.888Z,304.55
2019-02-10T10:21:42.098Z,307.00
2019-02-10T10:22:42.299Z,306.74
2019-02-10T10:23:42.468Z,306.98
2019-02-10T10:24:49.315Z,306.97
2019-02-10T10:25:43.891Z,306.78
2019-02-10T10:26:43.113Z,306.61
2019-02-10T10:27:43.374Z,307.16
2019-02-10T10:28:43.570Z,306.96
2019-02-10T10:29:43.913Z,306.40
2019-02-10T10:30:43.994Z,311.68
2019-02-10T10:31:44.196Z,312.27
2019-02-10T10:32:44.442Z,312.85
2019-02-10T10:33:44.664Z,313.06
2019-02-10T10:34:44.894Z,311.19
2019-02-10T10:35:45.143Z,312.10
2019-02-10T10:36:45.310Z,312.06
2019-02-10T10:37:45.648Z,306.48
2019-02-10T10:38:45.735Z,311.87
2019-02-10T10:39:45.967Z,312.25
2019-02-10T10:40:46.163Z,312.40
2019-02-10T10:41:46.379Z,312.26
2019-02-10T10:42:46.607Z,312.49
2019-02-10T10:43:46.812Z,310.12
2019-02-10T10:44:47.050Z,312.70
2019-02-10T10:45:47.314Z,311.74
2019-02-10T10:46:47.450Z,311.99
2019-02-10T10:47:47.693Z,312.84
2019-02-10T10:48:47.869Z,309.91
2019-02-10T10:49:48.119Z,312.41
2019-02-10T10:50:48.325Z,311.77
2019-02-10T10:51:48.527Z,311.90
2019-02-10T10:52:48.987Z,312.10
2019-02-10T10:53:48.972Z,311.40
2019-02-10T10:54:49.184Z,312.48
2019-02-10T10:55:49.418Z,312.72
2019-02-10T10:56:49.623Z,312.41
2019-02-10T10:57:49.856Z,312.33
2019-02-10T10:58:50.047Z,306.05
2019-02-10T10:59:50.295Z,306.43
2019-02-10T11:00:50.479Z,306.65
2019-02-10T11:01:50.717Z,306.85
2019-02-10T11:02:51.030Z,306.71
2019-02-10T11:03:51.127Z,306.85
2019-02-10T11:04:51.348Z,306.85
2019-02-10T11:05:51.600Z,307.49
2019-02-10T11:06:51.787Z,306.44
2019-02-10T11:07:52.062Z,306.64
2019-02-10T11:08:52.216Z,306.97
2019-02-10T11:09:52.447Z,306.67
2019-02-10T11:10:52.716Z,306.99
2019-02-10T11:11:52.857Z,306.59
2019-02-10T11:12:53.099Z,306.34
2019-02-10T11:13:53.291Z,306.98
2019-02-10T11:14:53.528Z,306.38
2019-02-10T11:15:53.702Z,306.97
2019-02-10T11:16:53.949Z,306.72
2019-02-10T11:17:54.180Z,306.30
2019-02-10T11:18:54.435Z,306.68
2019-02-10T11:19:54.582Z,306.90
2019-02-10T11:20:54.775Z,306.79
2019-02-10T11:21:55.015Z,307.04
2019-02-10T11:22:55.233Z,306.76
2019-02-10T11:23:55.433Z,307.21
2019-02-10T11:24:55.650Z,306.94
2019-02-10T11:25:55.863Z,307.02
2019-02-10T11:26:56.125Z,307.18
2019-02-10T11:27:56.295Z,306.79
2019-02-10T11:28:56.499Z,307.32
2019-02-10T11:29:56.708Z,307.27
2019-02-10T11:30:56.945Z,307.16
2019-02-10T11:31:57.150Z,307.24
2019-02-10T11:32:57.378Z,306.52
2019-02-10T11:33:57.600Z,307.10
2019-02-10T11:34:57.841Z,306.29
2019-02-10T11:35:58.092Z,306.61
2019-02-10T11:36:58.277Z,306.72
2019-02-10T11:37:58.541Z,306.34
2019-02-10T11:38:58.706Z,306.76
2019-02-10T11:39:58.916Z,307.07
2019-02-10T11:40:59.149Z,306.98
2019-02-10T11:41:59.350Z,306.87
2019-02-10T11:43:00.051Z,307.04
2019-02-10T11:43:59.885Z,306.70
2019-02-10T11:45:00.007Z,306.67
2019-02-10T11:46:00.237Z,306.92
2019-02-10T11:47:00.443Z,306.59
2019-02-10T11:48:00.653Z,307.37
2019-02-10T11:49:00.861Z,306.74
2019-02-10T11:50:01.079Z,307.30
2019-02-10T11:51:01.309Z,306.88
2019-02-10T11:52:01.638Z,306.55
2019-02-10T11:53:01.740Z,312.11
2019-02-10T11:54:01.958Z,312.19
2019-02-10T11:55:02.169Z,311.63
2019-02-10T11:56:02.392Z,312.74
2019-02-10T11:57:02.615Z,312.50
2019-02-10T11:58:02.817Z,311.32
2019-02-10T11:59:03.013Z,311.98
2019-02-10T12:00:03.311Z,312.26
2019-02-10T12:01:03.509Z,312.03
2019-02-10T12:02:03.678Z,311.89
2019-02-10T12:03:03.902Z,311.69
2019-02-10T12:04:04.081Z,312.41
2019-02-10T12:05:04.313Z,311.96
2019-02-10T12:06:04.559Z,312.52
2019-02-10T12:07:04.771Z,312.17
2019-02-10T12:08:05.041Z,312.74
2019-02-10T12:09:05.149Z,312.63
2019-02-10T12:10:05.373Z,312.73
2019-02-10T12:11:05.627Z,307.00
2019-02-10T12:12:06.119Z,312.40
2019-02-10T12:13:06.059Z,313.01
2019-02-10T12:14:06.254Z,312.97
2019-02-10T12:15:06.471Z,311.91
2019-02-10T12:16:06.708Z,313.69
2019-02-10T12:17:06.989Z,312.48
2019-02-10T12:18:07.116Z,312.22
2019-02-10T12:19:07.329Z,312.96
2019-02-10T12:20:07.527Z,312.27
2019-02-10T12:21:07.776Z,312.10
2019-02-10T12:22:07.977Z,312.05
2019-02-10T12:23:08.210Z,312.44
2019-02-10T12:24:08.414Z,312.15
2019-02-10T12:25:08.725Z,312.33
2019-02-10T12:26:08.863Z,313.11
2019-02-10T12:27:09.070Z,312.15
2019-02-10T12:28:09.269Z,311.95
2019-02-10T12:29:09.483Z,312.94
2019-02-10T12:30:09.689Z,312.72
2019-02-10T12:31:09.945Z,312.45